Sherman Lake, Nebraska
Current Conditions -  °F | °C
As of 4:53 PM on Friday 19 Dec 2014 (Local Time) from KBBW Reporting Station
Clear Clear  
Wind Chill: 26°   Ceiling: Unl
Heat Index: 33°   Visibility: 9mi
Dew Point: 29°   Wind: 8mph
Humidity: 85%   Direction: 200°SSW
Pressure: 30"   Gusts: NA
Location:  41.3026°N, 99.0141°W
Report Text: KBBW 192253Z AUTO 20007KT 9SM CLR 01/M02 A3000 RMK AO2 SLP186 T00061017
Loading
Personal Weather Stations






























Interactive Weather Map New forecast layout! Learn more

10-Day Weather Forecast

Advertisements
Track Severe Weather on mobile